createdAt,value
2022-09-18T00:00:26.645Z,11.00
2022-09-18T00:02:53.227Z,11.00
2022-09-18T00:05:19.788Z,11.00
2022-09-18T00:07:46.300Z,11.00
2022-09-18T00:10:15.132Z,11.00
2022-09-18T00:12:41.859Z,11.00
2022-09-18T00:15:13.032Z,11.00
2022-09-18T00:17:39.610Z,11.00
2022-09-18T00:20:07.566Z,11.00
2022-09-18T00:22:34.232Z,11.00
2022-09-18T00:25:00.743Z,11.10
2022-09-18T00:27:27.277Z,11.00
2022-09-18T00:29:53.978Z,11.00
2022-09-18T00:32:20.700Z,11.00
2022-09-18T00:34:47.260Z,11.00
2022-09-18T00:37:13.821Z,11.00
2022-09-18T00:39:40.951Z,11.00
2022-09-18T00:42:10.273Z,11.00
2022-09-18T00:44:43.431Z,11.00
2022-09-18T00:47:09.902Z,11.00
2022-09-18T00:49:37.651Z,11.00
2022-09-18T00:52:04.370Z,11.00
2022-09-18T00:54:34.207Z,11.00
2022-09-18T00:57:02.657Z,11.00
2022-09-18T00:59:30.834Z,10.90
2022-09-18T01:01:58.094Z,10.90
2022-09-18T01:04:24.889Z,10.90
2022-09-18T01:06:57.355Z,10.90
2022-09-18T01:09:29.462Z,10.90
2022-09-18T01:12:04.785Z,10.90
2022-09-18T01:14:36.204Z,11.00
2022-09-18T01:17:12.175Z,10.90
2022-09-18T01:19:57.087Z,11.00
2022-09-18T01:22:38.968Z,10.90
2022-09-18T01:25:25.763Z,10.90
2022-09-18T01:28:01.429Z,11.00
2022-09-18T01:30:28.285Z,11.00
2022-09-18T01:33:06.324Z,11.00
2022-09-18T01:35:42.501Z,11.00
2022-09-18T01:38:16.073Z,11.00
2022-09-18T01:40:51.116Z,11.00
2022-09-18T01:43:18.988Z,11.00
2022-09-18T01:45:47.340Z,11.00
2022-09-18T01:48:31.827Z,11.00
2022-09-18T01:51:01.682Z,11.00
2022-09-18T01:53:30.241Z,11.00
2022-09-18T01:56:06.097Z,11.00
2022-09-18T01:58:35.250Z,11.00
2022-09-18T02:01:05.729Z,11.00
2022-09-18T02:03:38.188Z,11.00
2022-09-18T02:06:08.896Z,10.90
2022-09-18T02:08:40.728Z,11.00
2022-09-18T02:11:09.182Z,11.00
2022-09-18T02:13:40.627Z,11.00
2022-09-18T02:16:13.331Z,11.00
2022-09-18T02:18:42.178Z,10.90
2022-09-18T02:21:14.264Z,11.00
2022-09-18T02:23:43.982Z,11.00
2022-09-18T02:26:11.653Z,11.00
2022-09-18T02:28:38.833Z,11.00
2022-09-18T02:31:05.537Z,11.00
2022-09-18T02:33:38.702Z,11.00
2022-09-18T02:36:05.947Z,11.00
2022-09-18T02:38:37.382Z,11.00
2022-09-18T02:41:24.096Z,11.00
2022-09-18T02:43:55.751Z,11.00
2022-09-18T02:46:41.212Z,11.00
2022-09-18T02:49:26.441Z,11.00
2022-09-18T02:51:56.502Z,11.00
2022-09-18T02:54:26.550Z,11.00
2022-09-18T02:56:55.946Z,11.00
2022-09-18T02:59:22.641Z,11.00
2022-09-18T03:01:49.837Z,11.00
2022-09-18T03:04:20.992Z,11.00
2022-09-18T03:06:50.594Z,11.00
2022-09-18T03:09:19.541Z,11.00
2022-09-18T03:11:46.173Z,11.00
2022-09-18T03:14:15.168Z,11.00
2022-09-18T03:16:41.857Z,11.00
2022-09-18T03:19:11.757Z,11.00
2022-09-18T03:21:38.391Z,11.00
2022-09-18T03:24:07.381Z,11.00
2022-09-18T03:26:33.864Z,11.00
2022-09-18T03:29:00.380Z,11.00
2022-09-18T03:31:26.968Z,11.00
2022-09-18T03:33:53.520Z,11.00
2022-09-18T03:36:20.027Z,11.00
2022-09-18T03:38:46.589Z,11.00
2022-09-18T03:41:13.145Z,11.00
2022-09-18T03:43:39.734Z,11.00
2022-09-18T03:46:06.334Z,11.00
2022-09-18T03:48:32.939Z,11.00
2022-09-18T03:50:59.465Z,11.00
2022-09-18T03:53:26.153Z,11.00
2022-09-18T03:55:54.877Z,11.00
2022-09-18T03:58:21.381Z,11.00
2022-09-18T04:00:47.919Z,11.00
2022-09-18T04:03:14.482Z,11.00
2022-09-18T04:05:43.510Z,11.00
2022-09-18T04:08:10.066Z,11.00
2022-09-18T04:10:36.665Z,11.00
2022-09-18T04:13:03.218Z,11.10
2022-09-18T04:15:32.134Z,11.10
2022-09-18T04:18:00.877Z,11.00
2022-09-18T04:20:27.699Z,11.00
2022-09-18T04:22:54.282Z,11.00
2022-09-18T04:25:21.034Z,11.00
2022-09-18T04:27:47.586Z,11.00
2022-09-18T04:30:14.408Z,11.00
2022-09-18T04:32:41.991Z,11.10
2022-09-18T04:35:08.720Z,11.10
2022-09-18T04:37:35.378Z,11.10
2022-09-18T04:40:02.578Z,11.00
2022-09-18T04:42:29.210Z,11.10
2022-09-18T04:44:55.732Z,11.10
2022-09-18T04:47:22.274Z,11.10
2022-09-18T04:49:51.217Z,11.10
2022-09-18T04:52:19.207Z,11.10
2022-09-18T04:54:45.703Z,11.10
2022-09-18T04:57:12.240Z,11.10
2022-09-18T04:59:41.356Z,11.10
2022-09-18T05:02:10.381Z,11.10
2022-09-18T05:04:37.010Z,11.10
2022-09-18T05:07:06.874Z,11.10
2022-09-18T05:09:33.441Z,11.10
2022-09-18T05:11:59.998Z,11.10
2022-09-18T05:14:31.508Z,11.10
2022-09-18T05:16:59.009Z,11.10
2022-09-18T05:19:26.046Z,11.20
2022-09-18T05:21:54.688Z,11.20
2022-09-18T05:24:23.734Z,11.20
2022-09-18T05:26:50.253Z,11.20
2022-09-18T05:29:16.940Z,11.20
2022-09-18T05:31:45.727Z,11.20
2022-09-18T05:34:12.273Z,11.20
2022-09-18T05:36:38.827Z,11.20
2022-09-18T05:39:05.395Z,11.20
2022-09-18T05:41:34.085Z,11.20
2022-09-18T05:44:00.687Z,11.20
2022-09-18T05:46:27.247Z,11.20
2022-09-18T05:48:53.899Z,11.20
2022-09-18T05:51:20.673Z,11.20
2022-09-18T05:53:48.486Z,11.30
2022-09-18T05:56:17.699Z,11.30
2022-09-18T05:58:44.302Z,11.20
2022-09-18T06:01:14.379Z,11.30
2022-09-18T06:03:41.584Z,11.30
2022-09-18T06:06:10.299Z,11.30
2022-09-18T06:08:36.844Z,11.30
2022-09-18T06:11:06.080Z,11.40
2022-09-18T06:13:32.653Z,11.40
2022-09-18T06:15:59.308Z,11.40
2022-09-18T06:18:26.082Z,11.40
2022-09-18T06:20:53.712Z,11.50
2022-09-18T06:23:22.917Z,11.50
2022-09-18T06:25:55.685Z,11.50
2022-09-18T06:28:22.557Z,11.50
2022-09-18T06:30:53.806Z,11.50
2022-09-18T06:33:22.514Z,11.50
2022-09-18T06:35:49.175Z,11.50
2022-09-18T06:38:16.278Z,11.50
2022-09-18T06:40:52.943Z,11.60
2022-09-18T06:43:19.546Z,11.60
2022-09-18T06:45:55.596Z,11.60
2022-09-18T06:48:23.442Z,11.60
2022-09-18T06:50:56.510Z,11.60
2022-09-18T06:53:23.680Z,11.60
2022-09-18T06:55:50.618Z,11.60
2022-09-18T06:58:17.710Z,11.60
2022-09-18T07:00:46.893Z,11.60
2022-09-18T07:03:13.538Z,11.60
2022-09-18T07:05:42.684Z,11.70
2022-09-18T07:08:09.927Z,11.70
2022-09-18T07:10:36.592Z,11.70
2022-09-18T07:13:03.208Z,11.70
2022-09-18T07:15:29.820Z,11.70
2022-09-18T07:17:57.361Z,11.70
2022-09-18T07:20:24.249Z,11.70
2022-09-18T07:22:54.767Z,11.70
2022-09-18T07:25:23.881Z,11.80
2022-09-18T07:27:50.653Z,11.80
2022-09-18T07:30:19.678Z,11.80
2022-09-18T07:32:46.484Z,11.80
2022-09-18T07:35:15.554Z,11.80
2022-09-18T07:37:42.084Z,11.80
2022-09-18T07:40:09.661Z,11.80
2022-09-18T07:42:36.310Z,11.80
2022-09-18T07:45:03.216Z,11.90
2022-09-18T07:47:29.899Z,11.90
2022-09-18T07:49:56.520Z,11.90
2022-09-18T07:52:23.115Z,11.90
2022-09-18T07:54:49.760Z,11.90
2022-09-18T07:57:16.343Z,11.90
2022-09-18T07:59:42.865Z,11.90
2022-09-18T08:02:10.647Z,11.90
2022-09-18T08:04:37.334Z,11.90
2022-09-18T08:07:08.778Z,12.00
2022-09-18T08:09:37.540Z,12.00
2022-09-18T08:12:04.150Z,12.10
2022-09-18T08:14:30.663Z,12.00
2022-09-18T08:16:59.614Z,12.10
2022-09-18T08:19:28.630Z,12.10
2022-09-18T08:21:57.417Z,12.00
2022-09-18T08:24:24.533Z,12.00
2022-09-18T08:26:51.128Z,12.00
2022-09-18T08:29:20.746Z,12.00
2022-09-18T08:31:49.548Z,12.00
2022-09-18T08:34:18.522Z,12.00
2022-09-18T08:36:45.099Z,12.00
2022-09-18T08:39:11.699Z,12.10
2022-09-18T08:41:41.240Z,12.10
2022-09-18T08:44:12.348Z,12.20
2022-09-18T08:46:48.295Z,12.30
2022-09-18T08:49:17.643Z,12.30
2022-09-18T08:51:47.163Z,12.40
2022-09-18T08:54:16.674Z,12.40
2022-09-18T08:56:43.416Z,12.50
2022-09-18T08:59:28.634Z,12.40
2022-09-18T09:02:05.357Z,12.40
2022-09-18T09:04:31.999Z,12.30
2022-09-18T09:07:17.637Z,12.30
2022-09-18T09:10:05.400Z,12.40
2022-09-18T09:12:39.648Z,12.40
2022-09-18T09:15:25.543Z,12.40
2022-09-18T09:17:55.065Z,12.40
2022-09-18T09:20:24.441Z,12.40
2022-09-18T09:22:57.449Z,12.40
2022-09-18T09:25:29.999Z,12.40
2022-09-18T09:28:03.285Z,12.40
2022-09-18T09:30:30.524Z,12.40
2022-09-18T09:33:17.347Z,12.40
2022-09-18T09:35:48.671Z,12.30
2022-09-18T09:38:38.753Z,12.30
2022-09-18T09:41:26.271Z,12.30
2022-09-18T09:44:04.237Z,12.30
2022-09-18T09:46:49.454Z,12.30
2022-09-18T09:49:23.609Z,12.40
2022-09-18T09:51:56.917Z,12.40
2022-09-18T09:54:23.530Z,12.40
2022-09-18T09:56:53.486Z,12.40
2022-09-18T09:59:49.358Z,12.50
2022-09-18T10:02:31.087Z,12.50
2022-09-18T10:05:03.551Z,12.50
2022-09-18T10:07:36.269Z,12.50
2022-09-18T10:10:23.587Z,12.50
2022-09-18T10:13:08.978Z,12.50
2022-09-18T10:15:41.439Z,12.50
2022-09-18T10:18:16.253Z,12.50
2022-09-18T10:20:44.051Z,12.50
2022-09-18T10:23:16.947Z,12.50
2022-09-18T10:25:52.108Z,12.60
2022-09-18T10:28:18.689Z,12.60
2022-09-18T10:31:14.726Z,12.60
2022-09-18T10:33:45.649Z,12.60
2022-09-18T10:36:19.410Z,12.60
2022-09-18T10:38:48.426Z,12.60
2022-09-18T10:41:30.567Z,12.50
2022-09-18T10:44:00.003Z,12.50
2022-09-18T10:46:29.034Z,12.50
2022-09-18T10:48:57.137Z,12.50
2022-09-18T10:51:26.681Z,12.40
2022-09-18T10:54:01.507Z,12.50
2022-09-18T10:56:28.165Z,12.50
2022-09-18T10:58:54.809Z,12.50
2022-09-18T11:01:23.098Z,12.50
2022-09-18T11:03:52.464Z,12.60
2022-09-18T11:06:20.870Z,12.60
2022-09-18T11:08:49.109Z,12.60
2022-09-18T11:11:30.022Z,12.60
2022-09-18T11:14:06.837Z,12.60
2022-09-18T11:16:36.717Z,12.70
2022-09-18T11:19:07.445Z,12.70
2022-09-18T11:21:44.654Z,12.70
2022-09-18T11:24:16.997Z,12.70
2022-09-18T11:26:56.348Z,12.80
2022-09-18T11:29:27.906Z,12.80
2022-09-18T11:32:13.831Z,12.80
2022-09-18T11:34:45.167Z,12.80
2022-09-18T11:37:12.751Z,12.80
2022-09-18T11:39:42.738Z,12.80
2022-09-18T11:42:11.070Z,12.90
2022-09-18T11:44:38.067Z,12.80
2022-09-18T11:47:10.398Z,12.80
2022-09-18T11:49:40.667Z,12.80
2022-09-18T11:52:13.378Z,12.70
2022-09-18T11:54:51.890Z,12.70
2022-09-18T11:57:25.215Z,12.70
2022-09-18T11:59:56.806Z,12.80
2022-09-18T12:02:26.519Z,12.80
2022-09-18T12:04:58.038Z,12.70
2022-09-18T12:07:38.420Z,12.70
2022-09-18T12:10:11.178Z,12.60
2022-09-18T12:12:41.514Z,12.60
2022-09-18T12:15:22.709Z,12.60
2022-09-18T12:17:54.761Z,12.60
2022-09-18T12:20:24.104Z,12.60
2022-09-18T12:22:50.632Z,12.60
2022-09-18T12:25:17.745Z,12.60
2022-09-18T12:27:52.847Z,12.60
2022-09-18T12:30:21.627Z,12.60
2022-09-18T12:32:51.701Z,12.60
2022-09-18T12:35:27.291Z,12.60
2022-09-18T12:37:53.948Z,12.60
2022-09-18T12:40:30.779Z,12.60
2022-09-18T12:43:16.384Z,12.70
2022-09-18T12:45:58.786Z,12.70
2022-09-18T12:48:25.462Z,12.70
2022-09-18T12:50:58.839Z,12.60
2022-09-18T12:53:43.922Z,12.60
2022-09-18T12:56:18.865Z,12.60
2022-09-18T12:59:04.188Z,12.60
2022-09-18T13:01:36.605Z,12.70
2022-09-18T13:04:15.062Z,12.60
2022-09-18T13:06:45.556Z,12.60
2022-09-18T13:09:23.835Z,12.70
2022-09-18T13:12:01.910Z,12.70
2022-09-18T13:14:31.521Z,12.70
2022-09-18T13:17:03.540Z,12.70
2022-09-18T13:19:35.105Z,12.70
2022-09-18T13:22:06.888Z,12.80
2022-09-18T13:24:35.002Z,12.80
2022-09-18T13:27:02.681Z,12.70
2022-09-18T13:29:50.702Z,12.70
2022-09-18T13:32:21.462Z,12.70
2022-09-18T13:34:56.102Z,12.70
2022-09-18T13:37:26.633Z,12.70
2022-09-18T13:40:09.210Z,12.70
2022-09-18T13:42:38.198Z,12.70
2022-09-18T13:45:06.419Z,12.70
2022-09-18T13:47:53.007Z,12.60
2022-09-18T13:50:21.936Z,12.70
2022-09-18T13:52:53.264Z,12.70
2022-09-18T13:55:24.797Z,12.70
2022-09-18T13:57:52.384Z,12.60
2022-09-18T14:00:21.309Z,12.60
2022-09-18T14:02:51.292Z,12.60
2022-09-18T14:05:20.808Z,12.60
2022-09-18T14:08:13.608Z,12.60
2022-09-18T14:10:54.664Z,12.60
2022-09-18T14:13:43.102Z,12.60
2022-09-18T14:16:18.871Z,12.60
2022-09-18T14:18:46.595Z,12.60
2022-09-18T14:21:21.744Z,12.50
2022-09-18T14:23:48.402Z,12.50
2022-09-18T14:26:35.018Z,12.50
2022-09-18T14:29:16.353Z,12.50
2022-09-18T14:31:45.745Z,12.50
2022-09-18T14:34:18.253Z,12.50
2022-09-18T14:36:49.177Z,12.50
2022-09-18T14:39:33.953Z,12.40
2022-09-18T14:42:03.597Z,12.40
2022-09-18T14:44:32.143Z,12.40
2022-09-18T14:47:03.377Z,12.40
2022-09-18T14:49:34.989Z,12.40
2022-09-18T14:52:04.321Z,12.40
2022-09-18T14:54:39.203Z,12.40
2022-09-18T14:57:11.311Z,12.40
2022-09-18T14:59:40.594Z,12.30
2022-09-18T15:02:21.882Z,12.30
2022-09-18T15:04:48.914Z,12.30
2022-09-18T15:07:17.511Z,12.30
2022-09-18T15:09:48.877Z,12.20
2022-09-18T15:12:17.582Z,12.20
2022-09-18T15:14:47.552Z,12.20
2022-09-18T15:17:21.730Z,12.20
2022-09-18T15:19:58.291Z,12.10
2022-09-18T15:22:27.625Z,12.10
2022-09-18T15:24:55.073Z,12.10
2022-09-18T15:27:22.839Z,12.10
2022-09-18T15:29:57.760Z,12.10
2022-09-18T15:32:26.297Z,12.10
2022-09-18T15:34:53.769Z,12.00
2022-09-18T15:37:22.928Z,12.00
2022-09-18T15:40:09.260Z,12.00
2022-09-18T15:42:38.257Z,12.00
2022-09-18T15:45:08.003Z,12.00
2022-09-18T15:47:36.450Z,12.00
2022-09-18T15:50:11.860Z,12.00
2022-09-18T15:52:39.932Z,11.90
2022-09-18T15:55:06.653Z,11.90
2022-09-18T15:57:33.995Z,11.90
2022-09-18T16:00:00.612Z,11.90
2022-09-18T16:02:29.589Z,11.90
2022-09-18T16:04:56.284Z,11.90
2022-09-18T16:07:29.558Z,11.90
2022-09-18T16:09:56.119Z,11.90
2022-09-18T16:12:33.205Z,11.90
2022-09-18T16:15:01.575Z,11.90
2022-09-18T16:17:28.069Z,11.90
2022-09-18T16:19:55.390Z,11.80
2022-09-18T16:22:22.016Z,11.80
2022-09-18T16:24:51.813Z,11.80
2022-09-18T16:27:22.029Z,11.80
2022-09-18T16:29:48.899Z,11.80
2022-09-18T16:32:15.740Z,11.80
2022-09-18T16:34:46.493Z,11.80
2022-09-18T16:37:13.390Z,11.80
2022-09-18T16:39:40.159Z,11.80
2022-09-18T16:42:17.846Z,11.80
2022-09-18T16:44:47.579Z,11.80
2022-09-18T16:47:14.767Z,11.80
2022-09-18T16:49:42.701Z,11.80
2022-09-18T16:52:09.765Z,11.80
2022-09-18T16:54:36.284Z,11.80
2022-09-18T16:57:04.319Z,11.80
2022-09-18T16:59:31.741Z,11.70
2022-09-18T17:02:04.191Z,11.70
2022-09-18T17:04:34.104Z,11.60
2022-09-18T17:07:01.154Z,11.60
2022-09-18T17:09:27.730Z,11.60
2022-09-18T17:11:54.550Z,11.60
2022-09-18T17:14:21.520Z,11.60
2022-09-18T17:16:53.036Z,11.60
2022-09-18T17:19:20.086Z,11.50
2022-09-18T17:21:47.044Z,11.50
2022-09-18T17:24:13.599Z,11.50
2022-09-18T17:26:44.283Z,11.50
2022-09-18T17:29:13.855Z,11.60
2022-09-18T17:31:40.571Z,11.50
2022-09-18T17:34:07.304Z,11.50
2022-09-18T17:36:37.911Z,11.50
2022-09-18T17:39:04.821Z,11.50
2022-09-18T17:41:31.765Z,11.50
2022-09-18T17:43:58.390Z,11.50
2022-09-18T17:46:25.155Z,11.40
2022-09-18T17:48:58.709Z,11.30
2022-09-18T17:51:28.626Z,11.30
2022-09-18T17:54:05.390Z,11.30
2022-09-18T17:56:33.094Z,11.30
2022-09-18T17:59:01.664Z,11.30
2022-09-18T18:01:28.803Z,11.30
2022-09-18T18:03:55.578Z,11.20
2022-09-18T18:06:22.249Z,11.20
2022-09-18T18:08:49.905Z,11.20
2022-09-18T18:11:17.577Z,11.20
2022-09-18T18:13:47.618Z,11.20
2022-09-18T18:16:21.364Z,11.20
2022-09-18T18:18:48.021Z,11.20
2022-09-18T18:21:14.564Z,11.10
2022-09-18T18:23:46.097Z,11.10
2022-09-18T18:26:12.926Z,11.00
2022-09-18T18:28:42.139Z,10.90
2022-09-18T18:31:12.396Z,11.00
2022-09-18T18:33:40.102Z,11.00
2022-09-18T18:36:10.632Z,11.00
2022-09-18T18:38:37.549Z,11.00
2022-09-18T18:41:06.927Z,11.00
2022-09-18T18:43:34.783Z,11.00
2022-09-18T18:46:06.845Z,11.00
2022-09-18T18:48:34.006Z,11.00
2022-09-18T18:51:07.562Z,11.00
2022-09-18T18:53:36.510Z,11.00
2022-09-18T18:56:07.151Z,11.00
2022-09-18T18:58:34.178Z,11.00
2022-09-18T19:01:06.965Z,10.90
2022-09-18T19:03:38.088Z,10.90
2022-09-18T19:06:06.493Z,10.80
2022-09-18T19:08:35.556Z,10.80
2022-09-18T19:11:02.372Z,10.80
2022-09-18T19:13:29.330Z,10.80
2022-09-18T19:15:55.941Z,10.70
2022-09-18T19:18:22.590Z,10.70
2022-09-18T19:20:50.255Z,10.70
2022-09-18T19:23:16.779Z,10.60
2022-09-18T19:25:44.026Z,10.60
2022-09-18T19:28:15.319Z,10.60
2022-09-18T19:30:42.247Z,10.60
2022-09-18T19:33:16.240Z,10.60
2022-09-18T19:35:43.045Z,10.60
2022-09-18T19:38:12.724Z,10.60
2022-09-18T19:40:39.703Z,10.60
2022-09-18T19:43:08.387Z,10.60
2022-09-18T19:45:36.957Z,10.50
2022-09-18T19:48:04.565Z,10.50
2022-09-18T19:50:35.383Z,10.50
2022-09-18T19:53:02.084Z,10.50
2022-09-18T19:55:28.952Z,10.40
2022-09-18T19:57:56.763Z,10.50
2022-09-18T20:00:24.099Z,10.40
2022-09-18T20:02:50.913Z,10.40
2022-09-18T20:05:19.601Z,10.40
2022-09-18T20:07:49.125Z,10.40
2022-09-18T20:10:16.994Z,10.30
2022-09-18T20:12:43.769Z,10.30
2022-09-18T20:15:10.653Z,10.30
2022-09-18T20:17:37.800Z,10.20
2022-09-18T20:20:08.745Z,10.20
2022-09-18T20:22:38.304Z,10.20
2022-09-18T20:25:05.242Z,10.20
2022-09-18T20:27:35.413Z,10.20
2022-09-18T20:30:04.593Z,10.20
2022-09-18T20:32:31.179Z,10.20
2022-09-18T20:34:58.182Z,10.20
2022-09-18T20:37:32.811Z,10.20
2022-09-18T20:40:01.620Z,10.20
2022-09-18T20:42:29.968Z,10.20
2022-09-18T20:44:58.823Z,10.10
2022-09-18T20:47:26.144Z,10.10
2022-09-18T20:49:52.923Z,10.00
2022-09-18T20:52:19.717Z,10.00
2022-09-18T20:54:46.362Z,10.00
2022-09-18T20:57:15.645Z,9.90
2022-09-18T20:59:42.164Z,9.80
2022-09-18T21:02:08.813Z,9.80
2022-09-18T21:04:37.604Z,9.80
2022-09-18T21:07:06.643Z,9.70
2022-09-18T21:09:33.883Z,9.70
2022-09-18T21:12:00.427Z,9.60
2022-09-18T21:14:27.265Z,9.60
2022-09-18T21:16:54.274Z,9.60
2022-09-18T21:19:25.957Z,9.50
2022-09-18T21:21:52.511Z,9.50
2022-09-18T21:24:19.103Z,9.50
2022-09-18T21:26:48.812Z,9.40
2022-09-18T21:29:18.662Z,9.40
2022-09-18T21:31:46.434Z,9.30
2022-09-18T21:34:19.222Z,9.20
2022-09-18T21:36:48.117Z,9.30
2022-09-18T21:39:14.677Z,9.20
2022-09-18T21:41:46.372Z,9.20
2022-09-18T21:44:14.851Z,9.20
2022-09-18T21:46:42.716Z,9.10
2022-09-18T21:49:09.839Z,9.10
2022-09-18T21:51:42.069Z,9.10
2022-09-18T21:54:14.452Z,9.10
2022-09-18T21:56:41.466Z,9.10
2022-09-18T21:59:10.097Z,9.10
2022-09-18T22:01:38.997Z,9.10
2022-09-18T22:04:07.136Z,9.10
2022-09-18T22:06:35.894Z,9.20
2022-09-18T22:09:06.159Z,9.20
2022-09-18T22:11:36.627Z,9.20
2022-09-18T22:14:07.068Z,9.20
2022-09-18T22:16:36.306Z,9.20
2022-09-18T22:19:06.120Z,9.20
2022-09-18T22:21:36.160Z,9.20
2022-09-18T22:24:06.348Z,9.20
2022-09-18T22:26:34.621Z,9.30
2022-09-18T22:29:02.202Z,9.30
2022-09-18T22:31:31.002Z,9.20
2022-09-18T22:33:57.919Z,9.20
2022-09-18T22:36:25.324Z,9.30
2022-09-18T22:38:52.688Z,9.20
2022-09-18T22:41:19.463Z,9.30
2022-09-18T22:43:46.069Z,9.30
2022-09-18T22:46:13.736Z,9.30
2022-09-18T22:48:40.747Z,9.30
2022-09-18T22:51:08.564Z,9.30
2022-09-18T22:53:38.292Z,9.30
2022-09-18T22:56:05.997Z,9.30
2022-09-18T22:58:32.563Z,9.30
2022-09-18T23:01:25.143Z,9.30
2022-09-18T23:03:53.672Z,9.30
2022-09-18T23:06:22.612Z,9.30
2022-09-18T23:08:51.993Z,9.30
2022-09-18T23:11:19.839Z,9.30
2022-09-18T23:13:50.140Z,9.30
2022-09-18T23:16:16.846Z,9.30
2022-09-18T23:18:47.659Z,9.30
2022-09-18T23:21:16.545Z,9.40
2022-09-18T23:23:43.985Z,9.40
2022-09-18T23:26:14.290Z,9.40
2022-09-18T23:28:42.165Z,9.40
2022-09-18T23:31:17.048Z,9.40
2022-09-18T23:33:46.447Z,9.40
2022-09-18T23:36:14.349Z,9.40
2022-09-18T23:38:41.541Z,9.50
2022-09-18T23:41:11.939Z,9.40
2022-09-18T23:43:39.024Z,9.50
2022-09-18T23:46:06.142Z,9.50
2022-09-18T23:48:32.662Z,9.50
2022-09-18T23:51:01.856Z,9.50
2022-09-18T23:53:30.372Z,9.50
2022-09-18T23:56:03.032Z,9.50
2022-09-18T23:58:32.544Z,9.60
